Time;durP1;ratioP1;P1;durP2;ratioP2;P2;SDS_P1;SDS_P2;PMS_P1;PMS_P2;Temp;Humidity;BMP_temperature;BMP_pressure;BME280_temperature;BME280_humidity;BME280_pressure;Samples;Min_cycle;Max_cycle;Signal;HPM_P1;HPM_P2
2021/11/23 00:00:13;;;;;;;16.67;6.60;;;;;;;;;;6220990;23;20418;-87
2021/11/23 00:02:40;;;;;;;16.17;6.63;;;;;;;;;;6220596;23;20004;-91
2021/11/23 00:05:06;;;;;;;13.57;5.78;;;;;;;;;;6220447;23;20007;-90
2021/11/23 00:07:33;;;;;;;13.02;6.20;;;;;;;;;;6247489;23;20115;-92
2021/11/23 00:09:59;;;;;;;15.88;6.25;;;;;;;;;;6221075;23;20050;-92
2021/11/23 00:12:25;;;;;;;13.80;6.03;;;;;;;;;;6220802;23;20095;-90
2021/11/23 00:14:52;;;;;;;15.73;6.13;;;;;;;;;;6220562;23;20004;-92
2021/11/23 00:17:18;;;;;;;15.82;5.72;;;;;;;;;;6220373;23;20008;-89
2021/11/23 00:19:44;;;;;;;15.25;6.20;;;;;;;;;;6220799;23;20016;-91
2021/11/23 00:22:11;;;;;;;14.38;5.85;;;;;;;;;;6220780;23;20008;-91
2021/11/23 00:24:37;;;;;;;15.15;6.28;;;;;;;;;;6220213;23;20091;-91
2021/11/23 00:27:04;;;;;;;13.38;6.53;;;;;;;;;;6220488;23;20005;-92
2021/11/23 00:29:30;;;;;;;13.02;5.78;;;;;;;;;;6220883;23;20004;-91
2021/11/23 00:31:56;;;;;;;16.58;5.90;;;;;;;;;;6220341;23;20004;-91
2021/11/23 00:34:23;;;;;;;15.50;6.53;;;;;;;;;;6220801;23;20011;-92
2021/11/23 00:36:49;;;;;;;15.38;6.38;;;;;;;;;;6220551;23;20031;-91
2021/11/23 00:39:15;;;;;;;13.48;5.65;;;;;;;;;;6220376;23;20008;-89
2021/11/23 00:41:47;;;;;;;16.17;5.88;;;;;;;;;;6220414;23;20064;-91
2021/11/23 00:44:17;;;;;;;15.20;5.50;;;;;;;;;;6220623;23;20426;-91
2021/11/23 00:46:44;;;;;;;12.18;4.65;;;;;;;;;;6220387;23;20491;-92
2021/11/23 00:49:10;;;;;;;12.95;5.95;;;;;;;;;;6220588;23;20422;-90
2021/11/23 00:51:36;;;;;;;11.02;4.75;;;;;;;;;;6220389;23;20310;-93
2021/11/23 00:54:03;;;;;;;10.95;5.40;;;;;;;;;;6220832;23;20016;-92
2021/11/23 00:56:29;;;;;;;12.25;4.57;;;;;;;;;;6220808;23;20036;-92
2021/11/23 00:58:55;;;;;;;10.65;4.47;;;;;;;;;;6220447;23;20004;-92
2021/11/23 01:01:21;;;;;;;14.02;5.22;;;;;;;;;;6222567;23;20016;-93
2021/11/23 01:03:47;;;;;;;10.98;4.35;;;;;;;;;;6222518;23;20004;-92
2021/11/23 01:06:14;;;;;;;10.10;4.22;;;;;;;;;;6222539;23;20016;-92
2021/11/23 01:08:40;;;;;;;10.13;4.63;;;;;;;;;;6222448;23;20012;-89
2021/11/23 01:11:07;;;;;;;12.82;4.25;;;;;;;;;;6223888;23;20008;-93
2021/11/23 01:13:34;;;;;;;9.63;4.50;;;;;;;;;;6223044;23;20000;-92
2021/11/23 01:16:00;;;;;;;13.52;5.20;;;;;;;;;;6222588;23;20008;-92
2021/11/23 01:18:26;;;;;;;9.60;4.50;;;;;;;;;;6197606;23;20011;-91
2021/11/23 01:20:53;;;;;;;12.63;4.28;;;;;;;;;;6222376;23;20495;-90
2021/11/23 01:23:19;;;;;;;8.63;4.03;;;;;;;;;;6222142;23;20004;-90
2021/11/23 01:25:46;;;;;;;8.95;3.65;;;;;;;;;;6221948;23;20333;-92
2021/11/23 01:28:12;;;;;;;10.20;4.65;;;;;;;;;;6221857;23;20005;-91
2021/11/23 01:30:39;;;;;;;9.48;4.22;;;;;;;;;;6221834;23;20057;-92
2021/11/23 01:33:05;;;;;;;9.82;3.97;;;;;;;;;;6222315;23;20087;-88
2021/11/23 01:35:31;;;;;;;8.57;4.03;;;;;;;;;;6222206;23;20008;-93
2021/11/23 01:37:57;;;;;;;9.80;4.38;;;;;;;;;;6221967;23;20023;-88
2021/11/23 01:40:23;;;;;;;8.10;3.83;;;;;;;;;;6222470;23;20040;-90
2021/11/23 01:42:50;;;;;;;8.85;4.00;;;;;;;;;;6222060;23;20066;-92
2021/11/23 01:45:16;;;;;;;8.57;4.13;;;;;;;;;;6221757;23;20039;-91
2021/11/23 01:47:43;;;;;;;12.88;4.15;;;;;;;;;;6248668;23;20059;-92
2021/11/23 01:50:11;;;;;;;8.15;3.63;;;;;;;;;;6222220;23;20051;-92
2021/11/23 01:52:38;;;;;;;6.25;3.22;;;;;;;;;;6221926;23;20441;-92
2021/11/23 01:55:06;;;;;;;8.63;3.90;;;;;;;;;;6221653;23;20008;-92
2021/11/23 01:57:33;;;;;;;9.82;4.22;;;;;;;;;;6221855;23;20054;-91
2021/11/23 01:59:59;;;;;;;13.35;4.25;;;;;;;;;;6221480;23;20091;-91
2021/11/23 02:02:25;;;;;;;11.05;3.90;;;;;;;;;;6221878;23;20035;-92
2021/11/23 02:04:52;;;;;;;6.20;3.00;;;;;;;;;;6223141;23;20000;-89
2021/11/23 02:07:18;;;;;;;8.23;3.75;;;;;;;;;;6221490;23;20011;-93
2021/11/23 02:09:45;;;;;;;8.63;3.88;;;;;;;;;;6221918;23;20012;-93
2021/11/23 02:12:11;;;;;;;7.25;3.22;;;;;;;;;;6221706;23;20004;-90
2021/11/23 02:14:38;;;;;;;8.60;3.92;;;;;;;;;;6221480;23;20000;-89
2021/11/23 02:17:05;;;;;;;5.75;3.15;;;;;;;;;;6221375;23;20027;-92
2021/11/23 02:19:31;;;;;;;16.95;4.05;;;;;;;;;;6221319;23;20015;-92
2021/11/23 02:21:57;;;;;;;10.07;3.67;;;;;;;;;;6221876;23;20004;-89
2021/11/23 02:24:23;;;;;;;7.07;2.83;;;;;;;;;;6221427;23;20010;-90
2021/11/23 02:26:50;;;;;;;8.63;3.67;;;;;;;;;;6221549;23;20008;-90
2021/11/23 02:29:16;;;;;;;12.98;3.65;;;;;;;;;;6221418;23;20014;-92
2021/11/23 02:31:42;;;;;;;9.13;3.85;;;;;;;;;;6221324;23;20334;-93
2021/11/23 02:34:08;;;;;;;7.93;3.17;;;;;;;;;;6221474;23;20011;-93
2021/11/23 02:36:36;;;;;;;8.88;2.83;;;;;;;;;;6221165;23;20003;-93
2021/11/23 02:39:03;;;;;;;10.23;3.85;;;;;;;;;;6221177;23;20034;-92
2021/11/23 02:41:30;;;;;;;9.48;3.28;;;;;;;;;;6221431;23;20012;-93
2021/11/23 02:43:56;;;;;;;6.22;2.55;;;;;;;;;;6221089;23;20005;-89
2021/11/23 02:46:23;;;;;;;7.40;3.53;;;;;;;;;;6221234;23;20011;-92
2021/11/23 02:48:49;;;;;;;6.90;3.15;;;;;;;;;;6221366;23;20081;-89
2021/11/23 02:51:16;;;;;;;6.07;2.80;;;;;;;;;;6221229;23;20106;-90
2021/11/23 02:53:44;;;;;;;6.55;2.78;;;;;;;;;;6221004;23;20016;-89
2021/11/23 02:56:10;;;;;;;7.53;3.15;;;;;;;;;;6221018;23;20004;-93
2021/11/23 02:58:36;;;;;;;8.13;3.08;;;;;;;;;;6221143;23;20015;-89
2021/11/23 03:01:04;;;;;;;6.05;2.67;;;;;;;;;;6221212;23;20016;-91
2021/11/23 03:03:30;;;;;;;7.95;2.95;;;;;;;;;;6221244;23;20004;-90
2021/11/23 03:05:57;;;;;;;9.80;3.58;;;;;;;;;;6221244;23;20012;-93
2021/11/23 03:08:23;;;;;;;7.10;3.30;;;;;;;;;;6220983;23;20333;-92
2021/11/23 03:10:50;;;;;;;7.28;3.15;;;;;;;;;;6221036;23;20091;-89
2021/11/23 03:13:16;;;;;;;7.30;3.25;;;;;;;;;;6220891;23;20126;-90
2021/11/23 03:15:42;;;;;;;8.57;2.60;;;;;;;;;;6221009;23;20008;-93
2021/11/23 03:18:12;;;;;;;6.80;2.80;;;;;;;;;;6220981;23;20080;-89
2021/11/23 03:20:39;;;;;;;4.50;2.10;;;;;;;;;;6220615;23;20019;-88
2021/11/23 03:23:06;;;;;;;5.43;2.90;;;;;;;;;;6220471;23;20124;-90
2021/11/23 03:25:32;;;;;;;7.57;2.85;;;;;;;;;;6221070;23;20011;-92
2021/11/23 03:28:00;;;;;;;8.60;3.15;;;;;;;;;;6221194;23;20004;-93
2021/11/23 03:30:28;;;;;;;5.03;2.53;;;;;;;;;;6220974;23;20003;-90
2021/11/23 03:32:55;;;;;;;4.57;2.33;;;;;;;;;;6220679;23;20054;-93
2021/11/23 03:35:22;;;;;;;16.17;3.25;;;;;;;;;;6220873;23;20177;-91
2021/11/23 03:37:51;;;;;;;5.47;3.15;;;;;;;;;;6221404;23;20079;-92
2021/11/23 03:40:17;;;;;;;9.05;2.83;;;;;;;;;;6220853;23;20039;-92
2021/11/23 03:42:43;;;;;;;9.30;4.22;;;;;;;;;;6221076;23;20004;-92
2021/11/23 03:45:10;;;;;;;6.75;3.20;;;;;;;;;;6220715;23;20084;-91
2021/11/23 03:47:36;;;;;;;7.13;3.40;;;;;;;;;;6220623;23;20031;-93
2021/11/23 03:50:04;;;;;;;11.43;3.50;;;;;;;;;;6220510;23;20051;-88
2021/11/23 03:52:30;;;;;;;8.52;3.40;;;;;;;;;;6220637;23;20070;-93
2021/11/23 03:54:56;;;;;;;7.85;3.53;;;;;;;;;;6220529;23;20433;-92
2021/11/23 03:57:23;;;;;;;9.48;3.55;;;;;;;;;;6220578;23;20004;-89
2021/11/23 03:59:50;;;;;;;7.80;3.40;;;;;;;;;;6220518;23;20012;-93
2021/11/23 04:02:18;;;;;;;8.07;3.17;;;;;;;;;;6220693;23;20059;-90
2021/11/23 04:04:44;;;;;;;5.22;2.75;;;;;;;;;;6220788;23;20004;-88
2021/11/23 04:07:11;;;;;;;22.27;3.95;;;;;;;;;;6220397;23;20130;-93
2021/11/23 04:09:37;;;;;;;8.05;3.10;;;;;;;;;;6220544;23;20030;-93
2021/11/23 04:12:03;;;;;;;5.90;3.17;;;;;;;;;;6220821;23;20034;-94
2021/11/23 04:14:29;;;;;;;8.02;3.10;;;;;;;;;;6220911;23;20071;-91
2021/11/23 04:16:55;;;;;;;10.48;3.28;;;;;;;;;;6220459;23;20007;-92
2021/11/23 04:19:22;;;;;;;5.00;3.15;;;;;;;;;;6220275;23;20437;-92
2021/11/23 04:21:48;;;;;;;7.53;3.28;;;;;;;;;;6220279;23;20381;-94
2021/11/23 04:24:14;;;;;;;8.35;3.47;;;;;;;;;;6220316;23;20007;-92
2021/11/23 04:26:40;;;;;;;6.10;2.80;;;;;;;;;;6220622;23;20001;-93
2021/11/23 04:29:06;;;;;;;10.48;3.85;;;;;;;;;;6220347;23;20079;-90
2021/11/23 04:31:32;;;;;;;7.70;4.05;;;;;;;;;;6220321;23;20015;-93
2021/11/23 04:33:58;;;;;;;10.70;3.90;;;;;;;;;;6220391;23;20007;-92
2021/11/23 04:36:25;;;;;;;14.00;4.10;;;;;;;;;;6220511;23;20008;-93
2021/11/23 04:38:51;;;;;;;7.57;3.50;;;;;;;;;;6220243;23;20074;-91
2021/11/23 04:41:17;;;;;;;8.00;3.83;;;;;;;;;;6220484;23;20466;-91
2021/11/23 04:43:43;;;;;;;8.93;4.03;;;;;;;;;;6220191;23;20425;-88
2021/11/23 04:46:09;;;;;;;8.57;3.63;;;;;;;;;;6220084;23;20008;-94
2021/11/23 04:48:36;;;;;;;6.95;3.47;;;;;;;;;;6220291;23;20004;-89
2021/11/23 04:51:02;;;;;;;9.25;3.70;;;;;;;;;;6220229;23;20016;-93
2021/11/23 04:53:28;;;;;;;7.85;2.88;;;;;;;;;;6220274;23;20095;-92
2021/11/23 04:55:55;;;;;;;8.70;3.15;;;;;;;;;;6220881;23;20004;-94
2021/11/23 04:58:21;;;;;;;6.25;2.85;;;;;;;;;;6220211;23;20008;-93
2021/11/23 05:00:47;;;;;;;8.07;2.95;;;;;;;;;;6220070;23;20023;-93
2021/11/23 05:03:13;;;;;;;4.85;2.45;;;;;;;;;;6220140;23;20011;-93
2021/11/23 05:05:39;;;;;;;6.95;3.63;;;;;;;;;;6219994;23;20031;-91
2021/11/23 05:08:06;;;;;;;6.10;3.13;;;;;;;;;;6220346;23;20436;-89
2021/11/23 05:10:32;;;;;;;8.43;2.45;;;;;;;;;;6220466;23;20008;-94
2021/11/23 05:12:59;;;;;;;5.93;2.83;;;;;;;;;;6220152;23;20429;-89
2021/11/23 05:15:25;;;;;;;5.60;2.92;;;;;;;;;;6220056;23;20050;-92
2021/11/23 05:17:51;;;;;;;5.10;2.55;;;;;;;;;;6220377;23;20000;-92
2021/11/23 05:20:17;;;;;;;6.07;2.25;;;;;;;;;;6219969;23;20019;-91
2021/11/23 05:22:44;;;;;;;7.25;2.85;;;;;;;;;;6217493;22;20013;-89
2021/11/23 05:25:10;;;;;;;11.57;3.72;;;;;;;;;;6218318;23;20039;-93
2021/11/23 05:27:36;;;;;;;8.68;3.10;;;;;;;;;;6221966;23;20012;-89
2021/11/23 05:30:03;;;;;;;5.78;3.15;;;;;;;;;;6220618;23;20008;-89
2021/11/23 05:32:30;;;;;;;6.53;3.22;;;;;;;;;;6220275;23;20007;-86
2021/11/23 05:34:56;;;;;;;7.72;2.95;;;;;;;;;;6221283;23;20012;-92
2021/11/23 05:37:22;;;;;;;6.30;2.92;;;;;;;;;;6219735;23;20433;-92
2021/11/23 05:39:48;;;;;;;6.20;1.80;;;;;;;;;;6219932;23;20282;-94
2021/11/23 05:42:15;;;;;;;4.55;2.35;;;;;;;;;;6219984;23;20373;-89
2021/11/23 05:44:41;;;;;;;5.82;2.65;;;;;;;;;;6220313;23;20008;-92
2021/11/23 05:47:08;;;;;;;7.88;3.50;;;;;;;;;;6222869;23;20004;-95
2021/11/23 05:49:34;;;;;;;4.47;2.53;;;;;;;;;;6223402;23;20010;-94
2021/11/23 05:52:00;;;;;;;7.75;3.28;;;;;;;;;;6221681;22;20434;-95
2021/11/23 05:54:27;;;;;;;5.53;2.30;;;;;;;;;;6222433;23;20094;-96
2021/11/23 05:56:53;;;;;;;6.57;2.78;;;;;;;;;;6222871;23;20501;-94
2021/11/23 05:59:19;;;;;;;6.22;3.10;;;;;;;;;;6225727;23;20008;-94
2021/11/23 06:01:46;;;;;;;6.47;2.60;;;;;;;;;;6221807;23;20027;-93
2021/11/23 06:04:12;;;;;;;6.28;2.92;;;;;;;;;;6220582;23;20005;-92
2021/11/23 06:06:38;;;;;;;5.88;3.33;;;;;;;;;;6219938;23;20008;-87
2021/11/23 06:09:06;;;;;;;5.95;2.60;;;;;;;;;;6247635;23;20001;-88
2021/11/23 06:11:33;;;;;;;9.20;2.75;;;;;;;;;;6221617;23;20011;-91
2021/11/23 06:13:59;;;;;;;5.53;2.70;;;;;;;;;;6221661;23;20087;-88
2021/11/23 06:16:26;;;;;;;5.57;2.85;;;;;;;;;;6248159;23;20008;-91
2021/11/23 06:18:52;;;;;;;3.45;2.03;;;;;;;;;;6221535;23;20365;-91
2021/11/23 06:21:22;;;;;;;5.95;2.58;;;;;;;;;;6221380;23;20016;-93
2021/11/23 06:23:49;;;;;;;13.52;3.47;;;;;;;;;;6248594;23;20000;-92
2021/11/23 06:26:18;;;;;;;4.25;2.20;;;;;;;;;;6221520;23;20004;-92
2021/11/23 06:28:44;;;;;;;9.02;2.88;;;;;;;;;;6221463;23;20007;-93
2021/11/23 06:31:10;;;;;;;5.72;2.60;;;;;;;;;;6222036;23;20004;-92
2021/11/23 06:33:37;;;;;;;5.43;2.55;;;;;;;;;;6221070;23;20008;-91
2021/11/23 06:36:03;;;;;;;11.40;3.63;;;;;;;;;;6221179;23;20000;-91
2021/11/23 06:38:29;;;;;;;3.95;2.22;;;;;;;;;;6221374;23;20008;-91
2021/11/23 06:40:55;;;;;;;4.82;2.38;;;;;;;;;;6248015;23;20067;-92
2021/11/23 06:43:21;;;;;;;4.32;2.63;;;;;;;;;;6222411;23;20340;-92
2021/11/23 06:45:47;;;;;;;5.45;2.50;;;;;;;;;;6221635;23;20058;-92
2021/11/23 06:48:14;;;;;;;5.22;2.10;;;;;;;;;;6221802;23;20070;-91
2021/11/23 06:50:40;;;;;;;6.80;2.03;;;;;;;;;;6221543;23;20087;-91
2021/11/23 06:53:08;;;;;;;3.88;2.00;;;;;;;;;;6220778;23;20349;-92
2021/11/23 06:55:34;;;;;;;3.72;2.30;;;;;;;;;;6221259;23;20008;-93
2021/11/23 06:58:01;;;;;;;5.68;2.40;;;;;;;;;;6220693;23;20000;-92
2021/11/23 07:00:27;;;;;;;6.57;2.50;;;;;;;;;;6221332;23;20016;-92
2021/11/23 07:02:54;;;;;;;5.20;2.45;;;;;;;;;;6221654;23;20425;-92
2021/11/23 07:05:20;;;;;;;5.80;2.95;;;;;;;;;;6224482;23;20054;-92
2021/11/23 07:07:46;;;;;;;12.07;3.83;;;;;;;;;;6221802;23;20039;-91
2021/11/23 07:10:14;;;;;;;19.08;6.82;;;;;;;;;;6221460;23;20000;-92
2021/11/23 07:12:41;;;;;;;9.25;4.03;;;;;;;;;;6220794;23;20082;-91
2021/11/23 07:15:16;;;;;;;5.18;2.55;;;;;;;;;;6221638;23;20066;-92
2021/11/23 07:17:42;;;;;;;5.13;3.03;;;;;;;;;;6221132;23;20068;-91
2021/11/23 07:20:09;;;;;;;5.40;2.50;;;;;;;;;;6229067;23;20020;-92
2021/11/23 07:22:35;;;;;;;9.00;3.90;;;;;;;;;;6220788;23;20004;-91
2021/11/23 07:25:01;;;;;;;6.93;3.13;;;;;;;;;;6220828;23;20011;-91
2021/11/23 07:27:28;;;;;;;7.30;3.15;;;;;;;;;;6221158;23;20008;-91
2021/11/23 07:29:54;;;;;;;7.32;2.67;;;;;;;;;;6220820;23;20008;-91
2021/11/23 07:32:20;;;;;;;5.50;2.05;;;;;;;;;;6220814;23;20034;-91
2021/11/23 07:34:46;;;;;;;12.07;2.30;;;;;;;;;;6221147;23;20008;-91
2021/11/23 07:37:13;;;;;;;5.80;2.13;;;;;;;;;;6220806;23;20000;-90
2021/11/23 07:39:39;;;;;;;5.47;1.48;;;;;;;;;;6220833;23;20443;-92
2021/11/23 07:42:05;;;;;;;8.32;2.20;;;;;;;;;;6221453;23;20099;-91
2021/11/23 07:44:31;;;;;;;5.13;2.00;;;;;;;;;;6220741;23;20000;-91
2021/11/23 07:46:57;;;;;;;6.20;1.90;;;;;;;;;;6220572;23;20334;-91
2021/11/23 07:49:24;;;;;;;4.78;1.85;;;;;;;;;;6220985;23;20410;-91
2021/11/23 07:51:50;;;;;;;4.38;1.33;;;;;;;;;;6219919;23;20004;-91
2021/11/23 07:54:16;;;;;;;2.20;1.23;;;;;;;;;;6190928;23;20035;-90
2021/11/23 07:56:43;;;;;;;6.18;1.33;;;;;;;;;;6190901;23;20012;-91
2021/11/23 07:59:10;;;;;;;4.13;1.40;;;;;;;;;;6192515;23;20011;-92
2021/11/23 08:01:38;;;;;;;4.53;1.35;;;;;;;;;;6193399;23;20016;-92
2021/11/23 08:04:04;;;;;;;3.78;1.08;;;;;;;;;;6190824;23;20012;-90
2021/11/23 08:06:32;;;;;;;3.05;1.20;;;;;;;;;;6191330;23;20079;-91
2021/11/23 08:08:59;;;;;;;3.83;1.30;;;;;;;;;;6167675;23;20004;-91
2021/11/23 08:11:26;;;;;;;3.00;1.50;;;;;;;;;;6192586;23;20008;-91
2021/11/23 08:13:53;;;;;;;2.53;1.13;;;;;;;;;;6221301;23;20372;-91
2021/11/23 08:16:22;;;;;;;5.97;1.52;;;;;;;;;;6190375;23;20052;-90
2021/11/23 08:18:48;;;;;;;3.78;1.60;;;;;;;;;;6190141;23;20139;-90
2021/11/23 08:21:14;;;;;;;4.95;1.98;;;;;;;;;;6190430;23;20048;-90
2021/11/23 08:23:40;;;;;;;3.03;1.55;;;;;;;;;;6189969;23;20055;-89
2021/11/23 08:26:06;;;;;;;3.75;1.85;;;;;;;;;;6192029;23;20448;-89
2021/11/23 08:28:36;;;;;;;5.13;2.00;;;;;;;;;;6189982;23;20000;-89
2021/11/23 08:31:03;;;;;;;4.22;1.80;;;;;;;;;;6190266;23;20529;-90
2021/11/23 08:33:29;;;;;;;3.85;1.80;;;;;;;;;;6190160;23;20005;-91
2021/11/23 08:35:55;;;;;;;3.58;1.80;;;;;;;;;;6190322;23;20001;-89
2021/11/23 08:38:21;;;;;;;4.22;1.95;;;;;;;;;;6190190;23;20496;-89
2021/11/23 08:40:47;;;;;;;4.03;2.38;;;;;;;;;;6189940;23;20071;-90
2021/11/23 08:43:14;;;;;;;5.05;2.28;;;;;;;;;;6190368;23;20373;-92
2021/11/23 08:45:41;;;;;;;2.88;1.83;;;;;;;;;;6193043;23;20426;-89
2021/11/23 08:48:07;;;;;;;3.67;1.92;;;;;;;;;;6189780;23;20008;-89
2021/11/23 08:50:33;;;;;;;5.28;1.95;;;;;;;;;;6190197;23;20011;-90
2021/11/23 08:53:00;;;;;;;4.82;2.00;;;;;;;;;;6205017;23;20078;-90
2021/11/23 08:55:27;;;;;;;3.83;2.13;;;;;;;;;;6219996;23;20019;-90
2021/11/23 08:57:54;;;;;;;4.53;1.90;;;;;;;;;;6220092;23;20011;-89
2021/11/23 09:00:21;;;;;;;4.28;2.10;;;;;;;;;;6220410;23;20012;-90
2021/11/23 09:02:49;;;;;;;4.50;2.20;;;;;;;;;;6220120;23;20028;-90
2021/11/23 09:05:16;;;;;;;3.13;2.00;;;;;;;;;;6219983;23;20441;-90
2021/11/23 09:07:42;;;;;;;4.00;1.90;;;;;;;;;;6220569;23;20130;-91
2021/11/23 09:10:14;;;;;;;2.60;1.67;;;;;;;;;;6220404;23;20004;-87
2021/11/23 09:12:43;;;;;;;4.75;2.22;;;;;;;;;;6220040;23;20004;-94
2021/11/23 09:15:12;;;;;;;4.55;2.10;;;;;;;;;;6220345;23;20008;-90
2021/11/23 09:17:39;;;;;;;3.10;2.00;;;;;;;;;;6219931;23;20362;-89
2021/11/23 09:20:06;;;;;;;3.00;1.80;;;;;;;;;;6220657;23;20068;-90
2021/11/23 09:22:32;;;;;;;3.03;1.70;;;;;;;;;;6225093;23;20011;-89
2021/11/23 09:24:59;;;;;;;4.57;1.70;;;;;;;;;;6222523;23;20000;-89
2021/11/23 09:27:25;;;;;;;3.40;1.70;;;;;;;;;;6221898;23;20008;-90
2021/11/23 09:29:51;;;;;;;3.20;1.65;;;;;;;;;;6221958;23;20014;-89
2021/11/23 09:35:50;;;;;;;3.13;1.75;;;;;;;;;;6248084;23;20361;-90
2021/11/23 09:38:16;;;;;;;4.85;1.50;;;;;;;;;;6225260;23;20008;-89
2021/11/23 09:40:43;;;;;;;3.67;1.80;;;;;;;;;;6225152;23;20016;-87
2021/11/23 09:43:15;;;;;;;2.70;1.63;;;;;;;;;;6249976;23;20000;-95
2021/11/23 09:45:42;;;;;;;3.78;2.03;;;;;;;;;;6251503;23;20004;-93
2021/11/23 09:48:20;;;;;;;;;;;;;;;;;;;;;
2021/11/23 09:50:56;;;;;;;2.78;1.75;;;;;;;;;;6252471;23;20492;-88
2021/11/23 09:53:24;;;;;;;3.10;1.63;;;;;;;;;;6224755;23;20007;-89
2021/11/23 09:55:53;;;;;;;2.58;1.67;;;;;;;;;;6225237;23;20028;-91
2021/11/23 10:01:05;;;;;;;4.18;2.17;;;;;;;;;;6232920;22;20028;-90
2021/11/23 10:03:40;;;;;;;3.75;2.25;;;;;;;;;;6252812;23;20030;-88
2021/11/23 10:06:14;;;;;;;3.03;1.77;;;;;;;;;;6251822;23;20000;-92
2021/11/23 10:08:41;;;;;;;3.97;1.85;;;;;;;;;;6250807;23;20022;-92
2021/11/23 10:11:08;;;;;;;8.00;2.20;;;;;;;;;;6250517;23;20009;-89
2021/11/23 10:13:46;;;;;;;3.88;1.80;;;;;;;;;;6252359;23;20011;-88
2021/11/23 10:16:13;;;;;;;5.13;2.15;;;;;;;;;;6251002;23;20008;-91
2021/11/23 10:18:39;;;;;;;3.22;1.90;;;;;;;;;;6252971;23;20013;-94
2021/11/23 10:21:07;;;;;;;4.32;2.38;;;;;;;;;;6253770;23;20008;-96
2021/11/23 10:23:33;;;;;;;4.75;2.20;;;;;;;;;;6253370;23;20008;-91
2021/11/23 10:26:02;;;;;;;3.10;2.20;;;;;;;;;;6250887;23;20374;-86
2021/11/23 10:28:32;;;;;;;4.35;2.33;;;;;;;;;;6252862;23;20456;-94
2021/11/23 10:31:21;;;;;;;3.70;2.30;;;;;;;;;;6255530;23;20012;-96
2021/11/23 10:33:55;;;;;;;3.42;2.03;;;;;;;;;;6251693;23;20491;-89
2021/11/23 10:36:21;;;;;;;4.30;2.08;;;;;;;;;;6250403;23;20019;-93
2021/11/23 10:38:48;;;;;;;5.60;3.00;;;;;;;;;;6250968;23;20011;-92
2021/11/23 10:41:16;;;;;;;5.03;2.67;;;;;;;;;;6251142;23;20020;-92
2021/11/23 10:43:44;;;;;;;4.75;1.92;;;;;;;;;;6251430;23;20011;-91
2021/11/23 10:46:15;;;;;;;4.45;2.45;;;;;;;;;;6250699;23;20008;-91
2021/11/23 10:48:42;;;;;;;4.38;2.25;;;;;;;;;;6253332;23;20314;-94
2021/11/23 10:51:10;;;;;;;4.60;2.30;;;;;;;;;;6251032;23;20007;-94
2021/11/23 10:53:38;;;;;;;4.03;1.80;;;;;;;;;;6252276;23;20055;-95
2021/11/23 10:56:18;;;;;;;2.88;1.95;;;;;;;;;;6253137;23;20008;-93
2021/11/23 10:58:46;;;;;;;2.97;1.83;;;;;;;;;;6229501;23;20023;-94
2021/11/23 11:01:12;;;;;;;4.10;1.98;;;;;;;;;;6251954;23;20333;-94
2021/11/23 11:03:41;;;;;;;3.65;1.73;;;;;;;;;;6254932;23;20000;-93
2021/11/23 11:06:08;;;;;;;2.97;1.75;;;;;;;;;;6251135;23;20314;-95
2021/11/23 11:08:53;;;;;;;4.05;2.03;;;;;;;;;;6252611;23;20000;-91
2021/11/23 11:11:19;;;;;;;2.75;1.60;;;;;;;;;;6251427;23;20008;-94
2021/11/23 11:13:48;;;;;;;4.22;1.52;;;;;;;;;;6253096;22;20087;-92
2021/11/23 11:16:16;;;;;;;2.42;1.42;;;;;;;;;;6250180;23;20015;-94
2021/11/23 11:19:02;;;;;;;4.72;1.48;;;;;;;;;;6253904;23;20000;-93
2021/11/23 11:21:28;;;;;;;3.47;1.67;;;;;;;;;;6231699;23;20047;-90
2021/11/23 11:24:16;;;;;;;7.13;1.80;;;;;;;;;;6255118;22;20004;-93
2021/11/23 11:26:43;;;;;;;2.08;1.27;;;;;;;;;;6259338;23;19984;-88
2021/11/23 11:29:29;;;;;;;5.03;1.50;;;;;;;;;;6274168;22;20008;-84
2021/11/23 11:31:59;;;;;;;2.63;1.23;;;;;;;;;;6273263;22;20042;-86
2021/11/23 11:34:30;;;;;;;2.83;1.50;;;;;;;;;;6274784;22;20006;-88
2021/11/23 11:36:59;;;;;;;2.70;1.30;;;;;;;;;;6267748;22;20008;-95
2021/11/23 11:39:38;;;;;;;2.25;1.60;;;;;;;;;;6267046;22;19996;-96
2021/11/23 11:42:25;;;;;;;;;;;;;;;;;;;;;
2021/11/23 11:44:59;;;;;;;2.63;1.50;;;;;;;;;;6248716;22;19980;-94
2021/11/23 11:47:41;;;;;;;3.15;1.63;;;;;;;;;;6259974;22;20008;-96
2021/11/23 11:50:09;;;;;;;2.58;1.50;;;;;;;;;;6262709;22;20003;-95
2021/11/23 11:53:00;;;;;;;2.80;1.55;;;;;;;;;;6262661;22;20015;-94
2021/11/23 11:56:38;;;;;;;3.40;1.90;;;;;;;;;;5146018;27;20387;-95
2021/11/23 11:59:05;;;;;;;2.45;1.60;;;;;;;;;;5127694;28;20035;-93
2021/11/23 12:01:36;;;;;;;2.50;1.60;;;;;;;;;;5113327;28;20034;-96
2021/11/23 12:04:12;;;;;;;3.97;1.60;;;;;;;;;;5102065;28;20062;-95
2021/11/23 12:06:54;;;;;;;3.80;1.73;;;;;;;;;;5124560;28;20024;-94
2021/11/23 12:09:30;;;;;;;3.70;1.60;;;;;;;;;;5126968;28;20054;-96
2021/11/23 12:12:11;;;;;;;2.45;1.63;;;;;;;;;;5129132;28;20032;-92
2021/11/23 12:15:41;;;;;;;2.70;1.50;;;;;;;;;;5132661;28;20044;-94
2021/11/23 12:18:10;;;;;;;2.47;1.40;;;;;;;;;;5119699;28;20048;-92
2021/11/23 12:21:03;;;;;;;5.22;1.73;;;;;;;;;;5116028;28;20032;-95
2021/11/23 12:23:49;;;;;;;3.58;1.98;;;;;;;;;;5125964;28;20020;-96
2021/11/23 12:26:17;;;;;;;6.75;1.60;;;;;;;;;;5095216;28;20067;-96
2021/11/23 12:29:13;;;;;;;2.50;1.48;;;;;;;;;;5123350;28;20031;-94
2021/11/23 12:31:46;;;;;;;5.05;2.30;;;;;;;;;;5123969;28;20027;-95
2021/11/23 12:34:13;;;;;;;3.00;2.10;;;;;;;;;;5117437;28;20059;-96
2021/11/23 12:36:40;;;;;;;4.10;2.38;;;;;;;;;;5116891;28;20074;-92
2021/11/23 12:39:11;;;;;;;6.30;2.45;;;;;;;;;;5115412;28;20024;-87
2021/11/23 12:41:40;;;;;;;3.85;2.53;;;;;;;;;;5116581;28;20023;-95
2021/11/23 12:44:23;;;;;;;3.90;2.47;;;;;;;;;;5099626;28;20030;-91
2021/11/23 12:46:54;;;;;;;4.40;2.10;;;;;;;;;;5095399;28;20066;-94
2021/11/23 12:49:20;;;;;;;2.70;1.83;;;;;;;;;;5097386;28;20032;-93
2021/11/23 12:51:59;;;;;;;4.40;1.92;;;;;;;;;;5097693;28;20119;-94
2021/11/23 12:54:29;;;;;;;5.43;2.03;;;;;;;;;;5087688;28;20090;-93
2021/11/23 12:57:04;;;;;;;4.85;2.55;;;;;;;;;;5061665;28;20036;-94
2021/11/23 12:59:32;;;;;;;4.68;2.22;;;;;;;;;;5076542;28;20035;-94
2021/11/23 13:02:01;;;;;;;6.65;3.25;;;;;;;;;;5094654;28;20023;-94
2021/11/23 13:04:41;;;;;;;4.82;2.17;;;;;;;;;;5092342;28;20071;-93
2021/11/23 13:07:14;;;;;;;3.05;1.63;;;;;;;;;;5081165;28;20016;-94
2021/11/23 13:10:04;;;;;;;5.88;2.20;;;;;;;;;;5062747;28;20029;-94
2021/11/23 13:12:31;;;;;;;5.18;2.42;;;;;;;;;;5051094;28;20041;-90
2021/11/23 13:14:57;;;;;;;6.82;2.20;;;;;;;;;;5061554;28;20511;-92
2021/11/23 13:17:38;;;;;;;5.80;2.13;;;;;;;;;;5061876;28;20025;-93
2021/11/23 13:20:05;;;;;;;5.18;2.45;;;;;;;;;;5062102;28;20111;-93
2021/11/23 13:22:45;;;;;;;4.55;2.25;;;;;;;;;;5061505;28;20490;-93
2021/11/23 13:25:12;;;;;;;6.20;2.13;;;;;;;;;;5062149;28;20020;-93
2021/11/23 13:27:38;;;;;;;6.00;1.90;;;;;;;;;;5064386;28;20032;-93
2021/11/23 13:33:31;;;;;;;3.90;1.63;;;;;;;;;;5083731;28;20035;-91
2021/11/23 13:36:26;;;;;;;3.97;1.75;;;;;;;;;;5054125;28;20070;-94
2021/11/23 13:39:09;;;;;;;5.70;1.85;;;;;;;;;;5082168;28;20484;-91
2021/11/23 13:41:46;;;;;;;3.17;1.45;;;;;;;;;;5062286;28;20024;-91
2021/11/23 13:44:15;;;;;;;3.42;1.20;;;;;;;;;;5062401;28;20095;-94
2021/11/23 13:46:50;;;;;;;3.25;1.42;;;;;;;;;;5066750;28;20033;-94
2021/11/23 13:49:27;;;;;;;3.63;1.38;;;;;;;;;;5066624;28;20005;-92
2021/11/23 13:52:12;;;;;;;2.67;1.35;;;;;;;;;;5063172;28;20028;-93
2021/11/23 13:54:52;;;;;;;2.90;1.20;;;;;;;;;;5087534;28;20048;-93
2021/11/23 13:57:41;;;;;;;3.47;1.30;;;;;;;;;;5100182;28;20079;-88
2021/11/23 14:00:20;;;;;;;3.75;1.58;;;;;;;;;;5103454;28;20016;-89
2021/11/23 14:02:49;;;;;;;4.75;1.48;;;;;;;;;;5101448;28;20028;-85
2021/11/23 14:05:16;;;;;;;3.85;1.80;;;;;;;;;;5102280;28;20028;-93
2021/11/23 14:07:53;;;;;;;3.63;1.38;;;;;;;;;;5098452;28;20036;-89
2021/11/23 14:10:33;;;;;;;4.13;1.45;;;;;;;;;;5083415;28;20483;-95
2021/11/23 14:13:03;;;;;;;5.07;1.85;;;;;;;;;;5077520;28;20044;-93
2021/11/23 14:15:37;;;;;;;2.75;1.40;;;;;;;;;;5081136;28;20404;-91
2021/11/23 14:18:06;;;;;;;6.30;1.65;;;;;;;;;;5079493;28;20031;-91
2021/11/23 14:20:47;;;;;;;3.38;1.30;;;;;;;;;;5079724;28;20028;-94
2021/11/23 14:23:23;;;;;;;4.32;1.85;;;;;;;;;;5082519;28;20035;-96
2021/11/23 14:25:58;;;;;;;8.77;2.47;;;;;;;;;;5097671;28;20160;-93
2021/11/23 14:28:25;;;;;;;4.72;1.58;;;;;;;;;;5080020;28;20020;-92
2021/11/23 14:30:51;;;;;;;4.03;1.70;;;;;;;;;;5080364;28;20024;-92
2021/11/23 14:33:24;;;;;;;4.82;1.83;;;;;;;;;;5099923;28;20028;-93
2021/11/23 14:35:50;;;;;;;4.10;1.85;;;;;;;;;;5100396;28;20468;-91
2021/11/23 14:38:16;;;;;;;3.90;1.95;;;;;;;;;;5083008;28;20070;-94
2021/11/23 14:40:44;;;;;;;5.03;1.98;;;;;;;;;;5085451;28;20035;-93
2021/11/23 14:43:10;;;;;;;1.60;1.08;;;;;;;;;;5084251;28;20023;-94
2021/11/23 14:46:07;;;;;;;5.07;1.73;;;;;;;;;;5071968;28;20028;-95
2021/11/23 14:48:36;;;;;;;7.82;2.47;;;;;;;;;;5110086;28;20035;-92
2021/11/23 14:51:06;;;;;;;7.38;3.15;;;;;;;;;;5087925;28;20043;-87
2021/11/23 14:53:32;;;;;;;6.35;2.60;;;;;;;;;;5083961;28;20024;-92
2021/11/23 14:55:58;;;;;;;6.50;3.80;;;;;;;;;;5064930;28;20055;-93
2021/11/23 14:58:46;;;;;;;6.55;2.60;;;;;;;;;;5068986;28;20088;-89
2021/11/23 15:01:13;;;;;;;4.72;2.50;;;;;;;;;;5078183;28;20404;-91
2021/11/23 15:03:40;;;;;;;8.13;1.83;;;;;;;;;;5062941;28;20031;-94